createdAt,value
2019-01-21T00:00:43.798Z,28.47
2019-01-21T00:03:14.616Z,28.13
2019-01-21T00:05:40.206Z,26.57
2019-01-21T00:08:07.562Z,26.47
2019-01-21T00:10:34.830Z,26.80
2019-01-21T00:13:02.127Z,30.07
2019-01-21T00:15:29.499Z,28.60
2019-01-21T00:17:56.865Z,29.30
2019-01-21T00:20:24.129Z,30.27
2019-01-21T00:22:51.398Z,29.13
2019-01-21T00:25:18.673Z,28.23
2019-01-21T00:27:45.933Z,26.20
2019-01-21T00:30:14.739Z,28.90
2019-01-21T00:32:41.982Z,29.93
2019-01-21T00:35:10.795Z,28.47
2019-01-21T00:37:38.058Z,29.23
2019-01-21T00:40:12.701Z,30.73
2019-01-21T00:42:39.987Z,29.33
2019-01-21T00:45:08.802Z,27.83
2019-01-21T00:47:36.091Z,28.60
2019-01-21T00:50:04.919Z,31.10
2019-01-21T00:52:32.187Z,31.33
2019-01-21T00:54:59.460Z,31.00
2019-01-21T00:57:26.747Z,28.93
2019-01-21T00:59:54.058Z,28.80
2019-01-21T01:02:21.392Z,31.07
2019-01-21T01:04:48.646Z,28.37
2019-01-21T01:07:15.907Z,31.77
2019-01-21T01:09:43.167Z,28.37
2019-01-21T01:12:10.428Z,27.23
2019-01-21T01:14:37.685Z,29.17
2019-01-21T01:17:04.967Z,27.40
2019-01-21T01:19:32.235Z,28.13
2019-01-21T01:21:59.508Z,28.30
2019-01-21T01:24:26.778Z,30.83
2019-01-21T01:26:54.044Z,28.43
2019-01-21T01:29:21.314Z,29.50
2019-01-21T01:31:48.587Z,27.87
2019-01-21T01:34:15.850Z,30.47
2019-01-21T01:36:43.191Z,29.87
2019-01-21T01:39:10.475Z,29.97
2019-01-21T01:41:37.731Z,30.13
2019-01-21T01:44:05.028Z,28.70
2019-01-21T01:46:32.355Z,28.00
2019-01-21T01:49:01.307Z,28.50
2019-01-21T01:51:28.583Z,27.07
2019-01-21T01:53:55.919Z,27.97
2019-01-21T01:56:23.199Z,30.10
2019-01-21T01:58:50.442Z,27.63
2019-01-21T02:01:17.734Z,28.37
2019-01-21T02:03:45.008Z,27.23
2019-01-21T02:06:12.261Z,27.07
2019-01-21T02:08:39.519Z,31.90
2019-01-21T02:11:06.803Z,27.67
2019-01-21T02:13:34.165Z,27.57
2019-01-21T02:16:01.528Z,27.97
2019-01-21T02:18:28.864Z,27.93
2019-01-21T02:20:57.683Z,28.37
2019-01-21T02:23:26.563Z,29.57
2019-01-21T02:25:53.925Z,29.43
2019-01-21T02:28:25.375Z,26.83
2019-01-21T02:30:58.619Z,27.93
2019-01-21T02:33:43.917Z,28.73
2019-01-21T02:36:12.807Z,27.20
2019-01-21T02:38:41.611Z,30.43
2019-01-21T02:41:13.050Z,28.77
2019-01-21T02:43:50.850Z,29.77
2019-01-21T02:46:36.315Z,29.10
2019-01-21T02:49:17.327Z,26.60
2019-01-21T02:51:46.176Z,27.23
2019-01-21T02:54:15.024Z,30.90
2019-01-21T02:56:43.913Z,29.17
2019-01-21T02:59:17.479Z,29.50
2019-01-21T03:01:46.346Z,27.77
2019-01-21T03:04:15.155Z,28.30
2019-01-21T03:06:43.964Z,27.53
2019-01-21T03:09:18.502Z,28.70
2019-01-21T03:11:47.335Z,26.50
2019-01-21T03:14:16.141Z,29.97
2019-01-21T03:16:47.610Z,27.73
2019-01-21T03:19:16.413Z,26.67
2019-01-21T03:21:53.953Z,26.33
2019-01-21T03:24:22.792Z,26.00
2019-01-21T03:27:08.261Z,25.13
2019-01-21T03:29:37.071Z,25.50
2019-01-21T03:32:16.572Z,26.83
2019-01-21T03:34:51.068Z,26.97
2019-01-21T03:37:36.180Z,28.60
2019-01-21T03:40:21.436Z,29.70
2019-01-21T03:43:05.468Z,27.83
2019-01-21T03:45:37.487Z,29.67
2019-01-21T03:48:06.282Z,30.70
2019-01-21T03:50:41.054Z,29.50
2019-01-21T03:53:09.846Z,26.70
2019-01-21T03:55:38.671Z,25.00
2019-01-21T03:58:09.207Z,27.43
2019-01-21T04:00:38.020Z,26.63
2019-01-21T04:03:12.770Z,26.23
2019-01-21T04:05:44.536Z,26.97
2019-01-21T04:08:13.366Z,27.37
2019-01-21T04:10:42.217Z,25.37
2019-01-21T04:13:23.302Z,26.53
2019-01-21T04:15:52.202Z,28.67
2019-01-21T04:18:37.700Z,27.20
2019-01-21T04:21:06.600Z,26.53
2019-01-21T04:23:35.378Z,29.27
2019-01-21T04:26:16.092Z,27.63
2019-01-21T04:28:46.599Z,26.93
2019-01-21T04:31:18.074Z,26.50
2019-01-21T04:33:46.864Z,25.73
2019-01-21T04:36:24.862Z,27.10
2019-01-21T04:39:04.551Z,26.43
2019-01-21T04:41:39.561Z,27.17
2019-01-21T04:44:11.040Z,27.63
2019-01-21T04:46:39.862Z,26.50
2019-01-21T04:49:10.379Z,26.37
2019-01-21T04:51:54.147Z,24.87
2019-01-21T04:54:22.956Z,25.97
2019-01-21T04:56:51.791Z,25.57
2019-01-21T04:59:33.312Z,26.10
2019-01-21T05:02:17.194Z,26.10
2019-01-21T05:04:51.954Z,25.60
2019-01-21T05:07:37.384Z,28.27
2019-01-21T05:10:15.270Z,28.27
2019-01-21T05:12:44.079Z,26.97
2019-01-21T05:15:26.466Z,26.97
2019-01-21T05:18:01.168Z,25.70
2019-01-21T05:20:46.646Z,25.47
2019-01-21T05:23:25.965Z,26.27
2019-01-21T05:26:03.470Z,24.90
2019-01-21T05:28:32.330Z,25.50
2019-01-21T05:31:04.229Z,26.97
2019-01-21T05:33:38.780Z,27.60
2019-01-21T05:36:16.419Z,26.37
2019-01-21T05:38:50.907Z,24.73
2019-01-21T05:41:22.673Z,26.67
2019-01-21T05:44:03.285Z,25.10
2019-01-21T05:46:47.403Z,26.40
2019-01-21T05:49:16.214Z,26.67
2019-01-21T05:51:45.007Z,27.67
2019-01-21T05:54:13.814Z,26.37
2019-01-21T05:56:48.340Z,26.83
2019-01-21T05:59:33.514Z,26.43
2019-01-21T06:02:02.347Z,30.50
2019-01-21T06:04:43.327Z,28.53
2019-01-21T06:07:28.666Z,28.70
2019-01-21T06:09:57.469Z,29.70
2019-01-21T06:12:26.282Z,28.87
2019-01-21T06:14:55.095Z,26.90
2019-01-21T06:17:23.907Z,28.17
2019-01-21T06:19:58.441Z,30.83
2019-01-21T06:22:29.907Z,28.13
2019-01-21T06:25:07.486Z,28.90
2019-01-21T06:27:39.231Z,28.40
2019-01-21T06:30:16.985Z,27.40
2019-01-21T06:33:00.746Z,26.50
2019-01-21T06:35:35.223Z,28.43
2019-01-21T06:38:09.730Z,25.90
2019-01-21T06:40:47.505Z,26.17
2019-01-21T06:43:16.326Z,25.10
2019-01-21T06:45:54.288Z,26.37
2019-01-21T06:48:23.118Z,25.10
2019-01-21T06:50:51.903Z,27.03
2019-01-21T06:53:29.881Z,26.13
2019-01-21T06:56:01.618Z,28.93
2019-01-21T06:58:33.131Z,29.80
2019-01-21T07:01:04.830Z,28.00
2019-01-21T07:03:42.411Z,29.63
2019-01-21T07:06:11.212Z,29.47
2019-01-21T07:08:48.976Z,28.20
2019-01-21T07:11:17.787Z,26.30
2019-01-21T07:13:52.530Z,27.90
2019-01-21T07:16:33.460Z,27.63
2019-01-21T07:19:02.278Z,26.23
2019-01-21T07:21:37.042Z,27.50
2019-01-21T07:24:05.879Z,26.70
2019-01-21T07:26:34.667Z,26.50
2019-01-21T07:29:03.482Z,25.43
2019-01-21T07:31:32.287Z,26.13
2019-01-21T07:34:16.227Z,24.40
2019-01-21T07:36:45.027Z,22.33
2019-01-21T07:39:22.558Z,29.97
2019-01-21T07:41:54.266Z,30.60
2019-01-21T07:44:29.155Z,28.63
2019-01-21T07:46:57.942Z,30.30
2019-01-21T07:49:26.756Z,29.30
2019-01-21T07:52:12.147Z,34.93
2019-01-21T07:54:40.947Z,30.63
2019-01-21T07:57:24.684Z,33.00
2019-01-21T08:00:10.174Z,47.40
2019-01-21T08:02:47.783Z,37.93
2019-01-21T08:05:33.261Z,35.67
2019-01-21T08:08:02.116Z,32.23
2019-01-21T08:10:30.929Z,29.67
2019-01-21T08:13:05.662Z,31.33
2019-01-21T08:15:51.080Z,32.83
2019-01-21T08:18:32.095Z,35.13
2019-01-21T08:21:03.829Z,33.57
2019-01-21T08:23:32.632Z,29.70
2019-01-21T08:26:04.548Z,31.23
2019-01-21T08:28:36.042Z,27.20
2019-01-21T08:31:10.550Z,30.17
2019-01-21T08:33:45.130Z,30.47
2019-01-21T08:36:32.457Z,32.77
2019-01-21T08:39:06.118Z,31.30
2019-01-21T08:41:40.743Z,30.97
2019-01-21T08:44:25.930Z,30.57
2019-01-21T08:46:57.699Z,29.00
2019-01-21T08:49:32.616Z,28.27
2019-01-21T08:52:19.774Z,29.90
2019-01-21T08:54:51.612Z,31.10
2019-01-21T08:57:37.103Z,28.57
2019-01-21T09:00:05.921Z,29.47
2019-01-21T09:02:40.747Z,30.27
2019-01-21T09:05:09.556Z,31.93
2019-01-21T09:07:53.316Z,30.10
2019-01-21T09:10:22.118Z,29.00
2019-01-21T09:12:50.925Z,32.10
2019-01-21T09:15:19.737Z,31.83
2019-01-21T09:17:48.544Z,27.67
2019-01-21T09:20:20.476Z,28.67
2019-01-21T09:22:52.153Z,28.40
2019-01-21T09:25:23.650Z,28.07
2019-01-21T09:28:07.423Z,27.30
2019-01-21T09:30:45.396Z,27.67
2019-01-21T09:33:23.127Z,26.93
2019-01-21T09:35:51.946Z,29.43
2019-01-21T09:38:30.043Z,25.53
2019-01-21T09:41:15.345Z,27.13
2019-01-21T09:43:46.807Z,23.10
2019-01-21T09:46:21.751Z,26.17
2019-01-21T09:48:48.522Z,24.77
2019-01-21T09:51:17.316Z,23.40
2019-01-21T09:53:46.135Z,25.13
2019-01-21T09:56:35.892Z,24.77
2019-01-21T09:59:00.387Z,21.93
2019-01-21T10:01:29.371Z,22.97
2019-01-21T10:03:58.232Z,22.53
2019-01-21T10:06:27.228Z,22.77
2019-01-21T10:08:58.986Z,24.97
2019-01-21T10:11:27.931Z,20.77
2019-01-21T10:13:56.781Z,19.70
2019-01-21T10:16:40.551Z,19.77
2019-01-21T10:19:12.001Z,19.27
2019-01-21T10:21:43.938Z,18.43
2019-01-21T10:24:30.824Z,19.67
2019-01-21T10:27:14.402Z,19.23
2019-01-21T10:29:43.188Z,19.07
2019-01-21T10:32:21.000Z,17.90
2019-01-21T10:34:52.471Z,18.70
2019-01-21T10:37:38.003Z,18.00
2019-01-21T10:40:08.123Z,18.40
2019-01-21T10:42:43.279Z,18.53
2019-01-21T10:45:23.956Z,17.87
2019-01-21T10:47:52.757Z,18.07
2019-01-21T10:50:38.194Z,18.53
2019-01-21T10:53:09.932Z,17.80
2019-01-21T10:55:44.391Z,17.93
2019-01-21T10:58:13.178Z,17.40
2019-01-21T11:00:41.999Z,18.23
2019-01-21T11:03:10.876Z,17.20
2019-01-21T11:05:42.513Z,16.93
2019-01-21T11:08:26.533Z,18.47
2019-01-21T11:10:56.394Z,17.20
2019-01-21T11:13:44.349Z,17.23
2019-01-21T11:16:16.195Z,17.43
2019-01-21T11:18:45.107Z,16.00
2019-01-21T11:21:13.967Z,17.77
2019-01-21T11:23:48.423Z,17.50
2019-01-21T11:26:17.235Z,16.80
2019-01-21T11:28:51.895Z,16.63
2019-01-21T11:31:23.774Z,16.17
2019-01-21T11:33:53.869Z,16.67
2019-01-21T11:36:22.778Z,16.80
2019-01-21T11:38:51.578Z,17.53
2019-01-21T11:41:20.387Z,16.50
2019-01-21T11:44:04.423Z,16.73
2019-01-21T11:46:39.174Z,14.70
2019-01-21T11:49:07.999Z,15.80
2019-01-21T11:51:48.687Z,16.03
2019-01-21T11:54:20.202Z,14.87
2019-01-21T11:56:51.943Z,14.97
2019-01-21T11:59:20.882Z,15.73
2019-01-21T12:01:52.642Z,15.27
2019-01-21T12:04:21.467Z,16.13
2019-01-21T12:07:08.657Z,16.27
2019-01-21T12:09:37.527Z,14.90
2019-01-21T12:12:06.478Z,15.73
2019-01-21T12:14:35.305Z,8.60
2019-01-21T12:17:04.176Z,7.97
2019-01-21T12:19:44.911Z,6.10
2019-01-21T12:22:13.920Z,7.40
2019-01-21T12:24:42.692Z,6.50
2019-01-21T12:27:11.606Z,7.47
2019-01-21T12:29:43.362Z,5.57
2019-01-21T12:32:15.100Z,8.13
2019-01-21T12:34:43.890Z,6.97
2019-01-21T12:37:15.574Z,5.97
2019-01-21T12:39:47.310Z,6.30
2019-01-21T12:42:19.020Z,7.10
2019-01-21T12:44:56.924Z,7.20
2019-01-21T12:47:31.834Z,7.20
2019-01-21T12:50:00.649Z,6.60
2019-01-21T12:52:29.558Z,7.60
2019-01-21T12:54:58.371Z,6.50
2019-01-21T12:57:29.814Z,7.23
2019-01-21T13:00:01.425Z,6.93
2019-01-21T13:02:30.828Z,7.70
2019-01-21T13:05:00.786Z,7.43
2019-01-21T13:07:29.638Z,7.70
2019-01-21T13:10:04.122Z,7.33
2019-01-21T13:12:44.901Z,8.53
2019-01-21T13:15:13.703Z,8.20
2019-01-21T13:17:42.513Z,8.17
2019-01-21T13:20:16.979Z,7.80
2019-01-21T13:22:51.640Z,7.67
2019-01-21T13:25:19.187Z,6.97
2019-01-21T13:27:47.988Z,7.53
2019-01-21T13:30:28.823Z,7.70
2019-01-21T13:32:57.647Z,6.80
2019-01-21T13:35:26.535Z,7.87
2019-01-21T13:37:58.283Z,6.73
2019-01-21T13:40:27.081Z,6.87
2019-01-21T13:43:04.830Z,7.43
2019-01-21T13:45:39.567Z,7.50
2019-01-21T13:48:10.016Z,7.93
2019-01-21T13:50:48.886Z,7.00
2019-01-21T13:53:34.596Z,7.27
2019-01-21T13:56:06.292Z,7.93
2019-01-21T13:58:40.975Z,7.33
2019-01-21T14:01:09.782Z,7.37
2019-01-21T14:03:53.795Z,7.50
2019-01-21T14:06:22.618Z,6.97
2019-01-21T14:09:00.359Z,6.77
2019-01-21T14:11:45.609Z,5.97
2019-01-21T14:14:14.407Z,7.53
2019-01-21T14:16:43.300Z,7.83
2019-01-21T14:19:12.106Z,7.07
2019-01-21T14:21:49.758Z,7.37
2019-01-21T14:24:21.209Z,6.87
2019-01-21T14:27:06.448Z,6.47
2019-01-21T14:29:35.243Z,6.40
2019-01-21T14:32:09.960Z,7.80
2019-01-21T14:34:38.790Z,6.90
2019-01-21T14:37:16.775Z,6.00
2019-01-21T14:39:45.599Z,7.80
2019-01-21T14:42:17.298Z,7.27
2019-01-21T14:45:02.706Z,6.00
2019-01-21T14:47:37.699Z,7.07
2019-01-21T14:50:18.839Z,7.07
2019-01-21T14:53:04.274Z,6.73
2019-01-21T14:55:33.150Z,6.70
2019-01-21T14:58:08.167Z,7.07
2019-01-21T15:00:55.025Z,7.00
2019-01-21T15:03:23.875Z,8.13
2019-01-21T15:06:09.451Z,8.00
2019-01-21T15:08:38.359Z,8.70
2019-01-21T15:11:07.208Z,6.83
2019-01-21T15:13:38.946Z,8.83
2019-01-21T15:16:07.883Z,8.40
2019-01-21T15:18:42.408Z,8.60
2019-01-21T15:21:11.414Z,9.87
2019-01-21T15:23:58.405Z,10.07
2019-01-21T15:26:30.023Z,10.37
2019-01-21T15:28:58.831Z,9.10
2019-01-21T15:31:30.420Z,9.30
2019-01-21T15:34:05.050Z,8.17
2019-01-21T15:36:39.940Z,9.27
2019-01-21T15:39:10.379Z,8.83
2019-01-21T15:41:41.849Z,9.07
2019-01-21T15:44:13.683Z,9.73
2019-01-21T15:46:42.578Z,8.73
2019-01-21T15:49:11.474Z,8.83
2019-01-21T15:51:49.075Z,9.97
2019-01-21T15:54:17.958Z,8.97
2019-01-21T15:57:04.811Z,9.37
2019-01-21T15:59:36.336Z,8.67
2019-01-21T16:02:17.010Z,9.27
2019-01-21T16:04:48.461Z,9.70
2019-01-21T16:07:19.951Z,9.37
2019-01-21T16:09:51.842Z,10.20
2019-01-21T16:12:26.626Z,10.03
2019-01-21T16:14:58.366Z,10.63
2019-01-21T16:17:27.212Z,10.10
2019-01-21T16:19:54.595Z,9.20
2019-01-21T16:22:40.135Z,9.57
2019-01-21T16:25:18.200Z,10.07
2019-01-21T16:27:46.999Z,11.03
2019-01-21T16:30:15.842Z,10.93
2019-01-21T16:32:44.644Z,12.57
2019-01-21T16:35:22.543Z,11.30
2019-01-21T16:37:51.346Z,10.70
2019-01-21T16:40:23.088Z,12.03
2019-01-21T16:42:50.443Z,13.07
2019-01-21T16:45:17.902Z,14.57
2019-01-21T16:47:45.212Z,11.83
2019-01-21T16:50:12.647Z,14.13
2019-01-21T16:52:41.175Z,14.27
2019-01-21T16:55:08.472Z,14.50
2019-01-21T16:57:35.762Z,15.40
2019-01-21T17:00:04.607Z,14.20
2019-01-21T17:02:34.664Z,14.33
2019-01-21T17:05:02.107Z,15.93
2019-01-21T17:07:29.438Z,14.73
2019-01-21T17:09:59.696Z,17.17
2019-01-21T17:12:27.214Z,16.40
2019-01-21T17:14:57.632Z,16.17
2019-01-21T17:17:23.587Z,16.67
2019-01-21T17:19:50.858Z,15.47
2019-01-21T17:22:18.135Z,17.67
2019-01-21T17:24:45.398Z,15.33
2019-01-21T17:27:12.644Z,17.33
2019-01-21T17:29:40.952Z,16.57
2019-01-21T17:32:08.215Z,16.20
2019-01-21T17:34:35.541Z,17.23
2019-01-21T17:37:04.328Z,16.50
2019-01-21T17:39:31.636Z,15.93
2019-01-21T17:41:58.916Z,15.43
2019-01-21T17:44:26.172Z,14.37
2019-01-21T17:46:53.459Z,14.97
2019-01-21T17:49:20.719Z,15.07
2019-01-21T17:51:47.987Z,15.00
2019-01-21T17:54:15.279Z,16.30
2019-01-21T17:56:42.548Z,15.00
2019-01-21T17:59:09.837Z,16.27
2019-01-21T18:01:39.337Z,14.90
2019-01-21T18:04:06.107Z,14.40
2019-01-21T18:06:33.383Z,12.53
2019-01-21T18:09:00.643Z,14.00
2019-01-21T18:11:27.923Z,13.33
2019-01-21T18:13:55.206Z,12.53
2019-01-21T18:16:22.453Z,16.20
2019-01-21T18:18:49.745Z,16.37
2019-01-21T18:21:17.023Z,15.00
2019-01-21T18:23:44.315Z,16.83
2019-01-21T18:26:11.633Z,15.33
2019-01-21T18:28:38.887Z,15.97
2019-01-21T18:31:06.239Z,16.37
2019-01-21T18:33:33.480Z,17.37
2019-01-21T18:36:00.773Z,16.50
2019-01-21T18:38:28.038Z,16.90
2019-01-21T18:40:55.342Z,18.43
2019-01-21T18:43:22.587Z,15.27
2019-01-21T18:45:49.835Z,16.60
2019-01-21T18:48:17.122Z,17.33
2019-01-21T18:50:44.370Z,16.07
2019-01-21T18:53:11.637Z,17.73
2019-01-21T18:55:38.907Z,18.13
2019-01-21T18:58:06.261Z,18.33
2019-01-21T19:00:33.542Z,20.40
2019-01-21T19:03:00.847Z,19.87
2019-01-21T19:05:28.091Z,19.60
2019-01-21T19:07:55.382Z,19.60
2019-01-21T19:10:22.674Z,20.63
2019-01-21T19:12:49.936Z,19.00
2019-01-21T19:15:18.762Z,20.10
2019-01-21T19:17:46.128Z,24.60
2019-01-21T19:20:14.908Z,23.07
2019-01-21T19:22:42.211Z,22.83
2019-01-21T19:25:10.147Z,24.03
2019-01-21T19:27:37.488Z,21.43
2019-01-21T19:30:06.271Z,22.53
2019-01-21T19:32:33.562Z,23.53
2019-01-21T19:35:00.858Z,23.63
2019-01-21T19:37:28.130Z,23.57
2019-01-21T19:39:55.398Z,27.87
2019-01-21T19:42:22.671Z,26.80
2019-01-21T19:44:49.955Z,25.70
2019-01-21T19:47:17.228Z,28.63
2019-01-21T19:49:44.507Z,25.97
2019-01-21T19:52:11.792Z,30.03
2019-01-21T19:54:39.036Z,29.30
2019-01-21T19:57:06.360Z,30.93
2019-01-21T19:59:33.657Z,32.40
2019-01-21T20:02:00.951Z,35.83
2019-01-21T20:04:28.234Z,34.30
2019-01-21T20:06:55.498Z,33.90
2019-01-21T20:09:22.799Z,39.83
2019-01-21T20:11:50.084Z,42.37
2019-01-21T20:14:17.351Z,43.83
2019-01-21T20:16:46.157Z,40.87
2019-01-21T20:19:13.434Z,47.60
2019-01-21T20:21:40.692Z,45.67
2019-01-21T20:24:07.971Z,42.27
2019-01-21T20:26:35.247Z,47.27
2019-01-21T20:29:02.526Z,48.63
2019-01-21T20:31:29.800Z,39.47
2019-01-21T20:33:57.091Z,42.17
2019-01-21T20:36:24.358Z,43.17
2019-01-21T20:38:51.634Z,43.90
2019-01-21T20:41:18.916Z,48.47
2019-01-21T20:43:46.186Z,47.53
2019-01-21T20:46:13.523Z,45.17
2019-01-21T20:48:40.835Z,43.80
2019-01-21T20:51:08.099Z,47.07
2019-01-21T20:53:35.348Z,43.83
2019-01-21T20:56:02.615Z,36.07
2019-01-21T20:58:29.874Z,38.53
2019-01-21T21:00:57.128Z,32.40
2019-01-21T21:03:24.403Z,31.80
2019-01-21T21:05:51.747Z,41.37
2019-01-21T21:08:19.068Z,34.97
2019-01-21T21:10:46.359Z,45.90
2019-01-21T21:13:13.643Z,35.10
2019-01-21T21:15:40.919Z,30.23
2019-01-21T21:18:08.161Z,47.90
2019-01-21T21:20:35.439Z,23.40
2019-01-21T21:23:02.712Z,40.67
2019-01-21T21:25:30.004Z,45.30
2019-01-21T21:27:57.331Z,39.57
2019-01-21T21:30:28.893Z,37.10
2019-01-21T21:32:58.208Z,41.57
2019-01-21T21:35:25.562Z,42.70
2019-01-21T21:37:52.814Z,35.07
2019-01-21T21:40:21.696Z,43.30
2019-01-21T21:42:48.986Z,43.40
2019-01-21T21:45:17.847Z,34.40
2019-01-21T21:47:46.675Z,40.10
2019-01-21T21:50:18.210Z,27.37
2019-01-21T21:52:45.473Z,29.77
2019-01-21T21:55:14.286Z,27.03
2019-01-21T21:57:41.566Z,30.50
2019-01-21T22:00:10.386Z,25.23
2019-01-21T22:02:39.382Z,34.00
2019-01-21T22:05:08.188Z,26.53
2019-01-21T22:07:35.548Z,23.67
2019-01-21T22:10:04.331Z,27.90
2019-01-21T22:12:31.620Z,30.43
2019-01-21T22:14:58.957Z,27.43
2019-01-21T22:17:26.210Z,26.17
2019-01-21T22:19:53.490Z,30.47
2019-01-21T22:22:20.747Z,34.57
2019-01-21T22:24:48.000Z,31.20
2019-01-21T22:27:15.302Z,35.03
2019-01-21T22:29:42.624Z,33.50
2019-01-21T22:32:09.898Z,23.97
2019-01-21T22:34:37.232Z,27.30
2019-01-21T22:37:04.518Z,25.43
2019-01-21T22:39:31.867Z,34.60
2019-01-21T22:41:59.120Z,26.37
2019-01-21T22:44:26.399Z,31.07
2019-01-21T22:46:53.646Z,29.13
2019-01-21T22:49:20.916Z,34.37
2019-01-21T22:51:48.186Z,26.97
2019-01-21T22:54:15.551Z,31.30
2019-01-21T22:56:42.903Z,32.83
2019-01-21T22:59:10.262Z,30.97
2019-01-21T23:01:39.075Z,33.10
2019-01-21T23:04:06.423Z,36.80
2019-01-21T23:06:33.714Z,31.07
2019-01-21T23:09:00.991Z,17.43
2019-01-21T23:11:28.355Z,26.50
2019-01-21T23:13:55.681Z,25.43
2019-01-21T23:16:22.976Z,27.33
2019-01-21T23:18:50.320Z,22.90
2019-01-21T23:21:17.683Z,32.03
2019-01-21T23:23:45.030Z,27.77
2019-01-21T23:26:12.322Z,27.67
2019-01-21T23:28:39.605Z,29.80
2019-01-21T23:31:06.984Z,31.70
2019-01-21T23:33:34.315Z,26.43
2019-01-21T23:36:01.603Z,28.00
2019-01-21T23:38:28.947Z,28.57
2019-01-21T23:40:56.205Z,30.50
2019-01-21T23:43:23.560Z,25.87
2019-01-21T23:45:52.506Z,25.73
2019-01-21T23:48:21.418Z,24.20
2019-01-21T23:50:48.729Z,18.50
2019-01-21T23:53:16.052Z,32.63
2019-01-21T23:55:43.351Z,22.07
2019-01-21T23:58:10.702Z,17.67
